To NAV CANADA Home Page Login to a new session Search on AWWS site Feedback and Comments Disclaimer Vers la page française équivalente Tips FAQ What's new on the site To the Forecasts and Observations / NOTAM section To "File a Flight Plan" website Publications and other links Update of the User's profile FIC Telephone Numbers My Weather Data Folder Route Weather Data Regional Weather Data Local Weather Data To the Forecasts and Observations / NOTAM section
Request Generated 04/30/2016 at 13:10:08 UTC . Weather information available at that time is displayed.

METAR/TAF

HOPE/BC    (show WxCam)

SPECI CYHE 301309Z AUTO 08004KT 3SM BR SCT002 07/07 A3034 RMK SLP277=
METAR CYHE 301300Z AUTO 09002KT 3/8SM FG SCT002 07/07 A3034 RMK
SLP276=
SPECI CYHE 301256Z AUTO 08003KT 3/8SM FG SCT002 07/07 A3033 RMK
SLP275=
SPECI CYHE 301249Z AUTO 11003KT 1/2SM FG BKN002 07/07 A3033 RMK
SLP274=
SPECI CYHE 301222Z AUTO 00000KT 5/8SM BR FEW002 SCT065 07/07 A3033
RMK SLP272=
SPECI CYHE 301215Z AUTO 00000KT 6SM BR FEW002 07/07 A3032 RMK SLP270=
SPECI CYHE 301214Z AUTO 00000KT 3SM BR FEW002 07/07 A3032 RMK SLP270=
SPECI CYHE 301202Z AUTO 00000KT 2 1/2SM BR SCT065 07/07 A3032 RMK
SLP270=
METAR CYHE 301200Z AUTO 00000KT 9SM SCT065 07/07 A3032 RMK SLP270=
SPECI CYHE 301151Z AUTO 00000KT 9SM BKN065 07/07 A3032 RMK SLP269=
SPECI CYHE 301150Z AUTO VRB02KT 3SM BR BKN065 07/07 A3031 RMK SLP267=
SPECI CYHE 301140Z AUTO 00000KT 2SM BR BKN065 07/07 A3031 RMK SLP267=
SPECI CYHE 301138Z AUTO 00000KT 4SM BR BKN065 08/08 A3031 RMK SLP267=
SPECI CYHE 301128Z AUTO 00000KT 9SM BKN065 08/08 A3031 RMK SLP265=
SPECI CYHE 301127Z AUTO 00000KT 3SM BR BKN065 08/08 A3031 RMK SLP265=
SPECI CYHE 301115Z AUTO 00000KT 2 1/2SM BR BKN070 08/08 A3030 RMK VIS
VRB 3/4-3 SLP264=
SPECI CYHE 301102Z AUTO 12002KT 4SM BR BKN065 08/08 A3030 RMK SLP261=
METAR CYHE 301100Z AUTO 11002KT 9SM BKN065 08/08 A3030 RMK SLP261=

CYHE - No TAF is issued for this station

Your time UTC time
Weather data provided by Environment Canada and NAV CANADA